First Ferry Vi — VRS4293 — position and weather

sailwx.info

Track history (hours):
 
Tides and Currents Weather Stations Pressure Air Temp Water Temp Dewpoint Dewpoint Depression Visibility Wind Speed Wind Dir Waves Ship Positions

First Ferry Vi

Last reported at 2014-Aug-01 03:22 UTC. Time now 2014-Aug-01 05:49 UTC.
Position N 22°17' E 114°10'.

Length 36 m; draft 1.8 m.

Type: Ship. MMSI: 477995028.

Date/timePositionNaut miles runAvg speedWind from/ knotsBaromVisibWave heightAir tempDewpointWater temp
2014-Aug-01 03:22N 22°17' E 114°10'0 0.0
2014-Aug-01 01:16N 22°17' E 114°10'1 1.7
2014-Aug-01 00:30N 22°19' E 114°09'1 1.1
2014-Jul-31 23:09N 22°18' E 114°08'2 0.2
2014-Jul-31 15:07N 22°17' E 114°10'2 1.7
2014-Jul-31 14:10N 22°18' E 114°08'1 0.9
2014-Jul-31 12:33N 22°17' E 114°10'1 0.9
2014-Jul-31 11:22N 22°18' E 114°08'0 0.4
2014-Jul-31 10:09N 22°18' E 114°08'2 0.4
2014-Jul-31 05:26N 22°17' E 114°10'0 0.1
2014-Jul-31 03:19N 22°17' E 114°10'0 0.2
2014-Jul-31 01:22N 22°17' E 114°10'2 2.2
2014-Jul-31 00:33N 22°19' E 114°09'2 1.1
2014-Jul-30 23:08N 22°18' E 114°08'2 0.2
2014-Jul-30 15:07N 22°17' E 114°10'2 1.7
2014-Jul-30 14:10N 22°18' E 114°08'2 2.2
2014-Jul-30 13:26N 22°17' E 114°10'0 0.2
2014-Jul-30 12:33N 22°17' E 114°10'1 1.2
2014-Jul-30 11:23N 22°18' E 114°08'0 0.2
2014-Jul-30 10:10N 22°18' E 114°08'3 0.6
2014-Jul-30 05:32N 22°17' E 114°11'1 0.5
2014-Jul-30 03:21N 22°17' E 114°10'0 0.2
2014-Jul-30 01:27N 22°17' E 114°10'2 2.2
2014-Jul-30 00:33N 22°19' E 114°09'4 3.3
2014-Jul-29 23:15N 22°17' E 114°05'4 0.5
2014-Jul-29 15:33N 22°17' E 114°10'1 0.9
2014-Jul-29 14:09N 22°18' E 114°08'1 0.4
2014-Jul-29 12:33N 22°18' E 114°09'1 0.6
2014-Jul-29 11:21N 22°18' E 114°08'0 0.2
2014-Jul-29 10:08N 22°18' E 114°08'1 0.3
2014-Jul-29 05:31N 22°17' E 114°10'0 0.1
2014-Jul-29 03:18N 22°17' E 114°10'0 0.2
2014-Jul-29 01:33N 22°17' E 114°10'1 1.4
2014-Jul-29 00:33N 22°18' E 114°09'1 1.0
2014-Jul-28 23:08N 22°18' E 114°08'1 0.2
2014-Jul-28 15:33N 22°17' E 114°10'2 1.1
2014-Jul-28 14:09N 22°18' E 114°08'2 2.4
2014-Jul-28 13:26N 22°17' E 114°10'0 0.2
2014-Jul-28 12:33N 22°17' E 114°10'1 1.3
2014-Jul-28 11:24N 22°18' E 114°08'1 0.3
2014-Jul-28 09:10N 22°18' E 114°08'1 0.3
2014-Jul-28 04:27N 22°20' E 114°09'1 0.3
2014-Jul-28 00:29N 22°19' E 114°09'1 0.9
2014-Jul-27 23:07N 22°18' E 114°08'1 0.2
2014-Jul-27 15:17N 22°17' E 114°10'0 0.0
2014-Jul-27 13:09N 22°17' E 114°10'0 0.0
2014-Jul-27 11:24N 22°17' E 114°10'0 0.1
2014-Jul-27 09:33N 22°17' E 114°10'0 0.1
2014-Jul-27 07:08N 22°17' E 114°10'0 0.0
2014-Jul-27 05:09N 22°17' E 114°10'1 1.2
2014-Jul-27 04:09N 22°18' E 114°08'0 0.2
2014-Jul-27 02:30N 22°18' E 114°08'1 0.1
2014-Jul-26 12:27N 22°18' E 114°08'2 1.8
2014-Jul-26 11:33N 22°17' E 114°10'1 1.1
2014-Jul-26 10:10N 22°18' E 114°08'2 2.8
2014-Jul-26 09:32N 22°17' E 114°10'0 0.1
2014-Jul-26 07:20N 22°17' E 114°10'0 0.1
2014-Jul-26 03:29N 22°17' E 114°10'1 0.6
2014-Jul-26 01:34N 22°18' E 114°09'1 1.0
2014-Jul-26 00:29N 22°19' E 114°09'1 1.1
2014-Jul-25 23:08N 22°18' E 114°08'1 0.2
2014-Jul-25 15:33N 22°17' E 114°10'1 0.9
2014-Jul-25 14:08N 22°18' E 114°08'1 0.8
2014-Jul-25 12:32N 22°17' E 114°10'1 1.2
2014-Jul-25 11:23N 22°18' E 114°08'0 0.1
2014-Jul-25 10:08N 22°18' E 114°08'2 0.3
2014-Jul-25 05:29N 22°17' E 114°10'0 0.2
2014-Jul-25 03:22N 22°17' E 114°10'0 0.2
2014-Jul-25 01:33N 22°17' E 114°10'2 1.5
2014-Jul-25 00:32N 22°19' E 114°09'1 1.0
2014-Jul-24 23:08N 22°18' E 114°08'2 0.2
2014-Jul-24 15:33N 22°17' E 114°10'1 0.9
2014-Jul-24 14:08N 22°18' E 114°08'1 0.8
2014-Jul-24 12:34N 22°17' E 114°10'1 0.9
2014-Jul-24 11:23N 22°18' E 114°09'1 0.3
2014-Jul-24 07:26N 22°17' E 114°10'0 0.2
2014-Jul-24 05:20N 22°17' E 114°10'0 0.0
2014-Jul-24 03:18N 22°17' E 114°10'0 0.0
2014-Jul-24 01:24N 22°17' E 114°10'1 1.5
2014-Jul-24 00:29N 22°19' E 114°09'1 1.0
2014-Jul-23 23:07N 22°18' E 114°08'1 0.2
2014-Jul-23 15:34N 22°17' E 114°10'1 1.0
2014-Jul-23 14:10N 22°18' E 114°08'1 0.9
2014-Jul-23 12:33N 22°17' E 114°10'1 1.0
2014-Jul-23 11:21N 22°18' E 114°08'0 0.1
2014-Jul-23 10:08N 22°18' E 114°08'2 0.6
2014-Jul-23 07:27N 22°17' E 114°10'0 0.2
2014-Jul-23 05:17N 22°17' E 114°10'0 0.0
2014-Jul-23 03:20N 22°17' E 114°10'0 0.2
2014-Jul-23 01:29N 22°17' E 114°10'2 1.7
2014-Jul-23 00:32N 22°19' E 114°09'1 1.0
2014-Jul-22 23:08N 22°18' E 114°08'1 0.2
2014-Jul-22 15:33N 22°17' E 114°10'1 1.0
2014-Jul-22 14:10N 22°18' E 114°08'1 1.9
2014-Jul-22 13:25N 22°17' E 114°10'0 0.1
2014-Jul-22 12:33N 22°17' E 114°10'1 1.1
2014-Jul-22 11:24N 22°18' E 114°08'0 0.3
2014-Jul-22 10:09N 22°18' E 114°09'1 0.3
2014-Jul-22 05:29N 22°17' E 114°10'  
Track history (hours):
 
Tides and Currents Weather Stations Pressure Air Temp Water Temp Dewpoint Dewpoint Depression Visibility Wind Speed Wind Dir Waves Ship Positions

First Ferry Vi

Last reported at 2014-Aug-01 03:22 UTC. Time now 2014-Aug-01 05:49 UTC.
Position N 22°17' E 114°10'.

Length 36 m; draft 1.8 m.

Type: Ship. MMSI: 477995028.

Date/timePositionNaut miles runAvg speedWind from/ knotsBaromVisibWave heightAir tempDewpointWater temp
2014-Aug-01 03:22N 22°17' E 114°10'0 0.0
2014-Aug-01 01:16N 22°17' E 114°10'1 1.7
2014-Aug-01 00:30N 22°19' E 114°09'1 1.1
2014-Jul-31 23:09N 22°18' E 114°08'2 0.2
2014-Jul-31 15:07N 22°17' E 114°10'2 1.7
2014-Jul-31 14:10N 22°18' E 114°08'1 0.9
2014-Jul-31 12:33N 22°17' E 114°10'1 0.9
2014-Jul-31 11:22N 22°18' E 114°08'0 0.4
2014-Jul-31 10:09N 22°18' E 114°08'2 0.4
2014-Jul-31 05:26N 22°17' E 114°10'0 0.1
2014-Jul-31 03:19N 22°17' E 114°10'0 0.2
2014-Jul-31 01:22N 22°17' E 114°10'2 2.2
2014-Jul-31 00:33N 22°19' E 114°09'2 1.1
2014-Jul-30 23:08N 22°18' E 114°08'2 0.2
2014-Jul-30 15:07N 22°17' E 114°10'2 1.7
2014-Jul-30 14:10N 22°18' E 114°08'2 2.2
2014-Jul-30 13:26N 22°17' E 114°10'0 0.2
2014-Jul-30 12:33N 22°17' E 114°10'1 1.2
2014-Jul-30 11:23N 22°18' E 114°08'0 0.2
2014-Jul-30 10:10N 22°18' E 114°08'3 0.6
2014-Jul-30 05:32N 22°17' E 114°11'1 0.5
2014-Jul-30 03:21N 22°17' E 114°10'0 0.2
2014-Jul-30 01:27N 22°17' E 114°10'2 2.2
2014-Jul-30 00:33N 22°19' E 114°09'4 3.3
2014-Jul-29 23:15N 22°17' E 114°05'4 0.5
2014-Jul-29 15:33N 22°17' E 114°10'1 0.9
2014-Jul-29 14:09N 22°18' E 114°08'1 0.4
2014-Jul-29 12:33N 22°18' E 114°09'1 0.6
2014-Jul-29 11:21N 22°18' E 114°08'0 0.2
2014-Jul-29 10:08N 22°18' E 114°08'1 0.3
2014-Jul-29 05:31N 22°17' E 114°10'0 0.1
2014-Jul-29 03:18N 22°17' E 114°10'0 0.2
2014-Jul-29 01:33N 22°17' E 114°10'1 1.4
2014-Jul-29 00:33N 22°18' E 114°09'1 1.0
2014-Jul-28 23:08N 22°18' E 114°08'1 0.2
2014-Jul-28 15:33N 22°17' E 114°10'2 1.1
2014-Jul-28 14:09N 22°18' E 114°08'2 2.4
2014-Jul-28 13:26N 22°17' E 114°10'0 0.2
2014-Jul-28 12:33N 22°17' E 114°10'1 1.3
2014-Jul-28 11:24N 22°18' E 114°08'1 0.3
2014-Jul-28 09:10N 22°18' E 114°08'1 0.3
2014-Jul-28 04:27N 22°20' E 114°09'1 0.3
2014-Jul-28 00:29N 22°19' E 114°09'1 0.9
2014-Jul-27 23:07N 22°18' E 114°08'1 0.2
2014-Jul-27 15:17N 22°17' E 114°10'0 0.0
2014-Jul-27 13:09N 22°17' E 114°10'0 0.0
2014-Jul-27 11:24N 22°17' E 114°10'0 0.1
2014-Jul-27 09:33N 22°17' E 114°10'0 0.1
2014-Jul-27 07:08N 22°17' E 114°10'0 0.0
2014-Jul-27 05:09N 22°17' E 114°10'1 1.2
2014-Jul-27 04:09N 22°18' E 114°08'0 0.2
2014-Jul-27 02:30N 22°18' E 114°08'1 0.1
2014-Jul-26 12:27N 22°18' E 114°08'2 1.8
2014-Jul-26 11:33N 22°17' E 114°10'1 1.1
2014-Jul-26 10:10N 22°18' E 114°08'2 2.8
2014-Jul-26 09:32N 22°17' E 114°10'0 0.1
2014-Jul-26 07:20N 22°17' E 114°10'0 0.1
2014-Jul-26 03:29N 22°17' E 114°10'1 0.6
2014-Jul-26 01:34N 22°18' E 114°09'1 1.0
2014-Jul-26 00:29N 22°19' E 114°09'1 1.1
2014-Jul-25 23:08N 22°18' E 114°08'1 0.2
2014-Jul-25 15:33N 22°17' E 114°10'1 0.9
2014-Jul-25 14:08N 22°18' E 114°08'1 0.8
2014-Jul-25 12:32N 22°17' E 114°10'1 1.2
2014-Jul-25 11:23N 22°18' E 114°08'0 0.1
2014-Jul-25 10:08N 22°18' E 114°08'2 0.3
2014-Jul-25 05:29N 22°17' E 114°10'0 0.2
2014-Jul-25 03:22N 22°17' E 114°10'0 0.2
2014-Jul-25 01:33N 22°17' E 114°10'2 1.5
2014-Jul-25 00:32N 22°19' E 114°09'1 1.0
2014-Jul-24 23:08N 22°18' E 114°08'2 0.2
2014-Jul-24 15:33N 22°17' E 114°10'1 0.9
2014-Jul-24 14:08N 22°18' E 114°08'1 0.8
2014-Jul-24 12:34N 22°17' E 114°10'1 0.9
2014-Jul-24 11:23N 22°18' E 114°09'1 0.3
2014-Jul-24 07:26N 22°17' E 114°10'0 0.2
2014-Jul-24 05:20N 22°17' E 114°10'0 0.0
2014-Jul-24 03:18N 22°17' E 114°10'0 0.0
2014-Jul-24 01:24N 22°17' E 114°10'1 1.5
2014-Jul-24 00:29N 22°19' E 114°09'1 1.0
2014-Jul-23 23:07N 22°18' E 114°08'1 0.2
2014-Jul-23 15:34N 22°17' E 114°10'1 1.0
2014-Jul-23 14:10N 22°18' E 114°08'1 0.9
2014-Jul-23 12:33N 22°17' E 114°10'1 1.0
2014-Jul-23 11:21N 22°18' E 114°08'0 0.1
2014-Jul-23 10:08N 22°18' E 114°08'2 0.6
2014-Jul-23 07:27N 22°17' E 114°10'0 0.2
2014-Jul-23 05:17N 22°17' E 114°10'0 0.0
2014-Jul-23 03:20N 22°17' E 114°10'0 0.2
2014-Jul-23 01:29N 22°17' E 114°10'2 1.7
2014-Jul-23 00:32N 22°19' E 114°09'1 1.0
2014-Jul-22 23:08N 22°18' E 114°08'1 0.2
2014-Jul-22 15:33N 22°17' E 114°10'1 1.0
2014-Jul-22 14:10N 22°18' E 114°08'1 1.9
2014-Jul-22 13:25N 22°17' E 114°10'0 0.1
2014-Jul-22 12:33N 22°17' E 114°10'1 1.1
2014-Jul-22 11:24N 22°18' E 114°08'0 0.3
2014-Jul-22 10:09N 22°18' E 114°09'1 0.3
2014-Jul-22 05:29N 22°17' E 114°10'  

Dump ship's entire track history